Time;durP1;ratioP1;P1;durP2;ratioP2;P2;SDS_P1;SDS_P2;PMS_P1;PMS_P2;Temp;Humidity;BMP_temperature;BMP_pressure;BME280_temperature;BME280_humidity;BME280_pressure;Samples;Min_cycle;Max_cycle;Signal;HPM_P1;HPM_P2
2023/04/19 00:00:40;;;;;;;;;;;11.80;91.80;;;;;;5110187;28;19916;-69
2023/04/19 00:03:06;;;;;;;;;;;11.80;91.80;;;;;;5109973;28;20015;-69
2023/04/19 00:05:31;;;;;;;;;;;11.80;91.70;;;;;;5108700;28;19918;-68
2023/04/19 00:07:57;;;;;;;;;;;11.80;91.90;;;;;;5108700;28;20360;-68
2023/04/19 00:10:23;;;;;;;;;;;11.80;91.80;;;;;;5108225;28;19927;-68
2023/04/19 00:12:48;;;;;;;;;;;11.80;91.80;;;;;;5103179;28;19920;-69
2023/04/19 00:15:14;;;;;;;;;;;11.80;91.90;;;;;;5095326;28;19911;-69
2023/04/19 00:17:39;;;;;;;;;;;11.70;91.80;;;;;;5109514;28;19908;-69
2023/04/19 00:20:05;;;;;;;;;;;11.70;91.70;;;;;;5101902;28;19920;-69
2023/04/19 00:22:31;;;;;;;;;;;11.70;92.00;;;;;;5089166;28;19920;-69
2023/04/19 00:24:56;;;;;;;;;;;11.70;92.10;;;;;;5089189;28;19918;-69
2023/04/19 00:27:22;;;;;;;;;;;11.70;92.10;;;;;;5088093;28;19916;-69
2023/04/19 00:29:47;;;;;;;;;;;11.70;92.10;;;;;;5089308;28;19927;-69
2023/04/19 00:32:13;;;;;;;;;;;11.70;91.90;;;;;;5089095;28;20011;-68
2023/04/19 00:34:39;;;;;;;;;;;11.70;91.90;;;;;;5087690;28;19919;-69
2023/04/19 00:37:05;;;;;;;;;;;11.70;92.00;;;;;;5089351;28;19912;-68
2023/04/19 00:39:30;;;;;;;;;;;11.70;92.10;;;;;;5089050;28;19915;-69
2023/04/19 00:41:59;;;;;;;;;;;11.70;92.10;;;;;;5105894;28;20414;-69
2023/04/19 00:44:25;;;;;;;;;;;11.60;91.90;;;;;;5107427;28;20431;-69
2023/04/19 00:46:51;;;;;;;;;;;11.70;92.00;;;;;;5108141;28;19964;-69
2023/04/19 00:49:16;;;;;;;;;;;11.60;92.00;;;;;;5107885;28;19927;-68
2023/04/19 00:51:42;;;;;;;;;;;11.60;92.10;;;;;;5109357;28;20392;-68
2023/04/19 00:54:08;;;;;;;;;;;11.60;92.10;;;;;;5107550;28;20377;-69
2023/04/19 00:56:34;;;;;;;;;;;11.60;92.10;;;;;;5109610;28;19961;-69
2023/04/19 00:58:59;;;;;;;;;;;11.60;92.00;;;;;;5109069;28;19912;-69
2023/04/19 01:01:25;;;;;;;;;;;11.60;92.10;;;;;;5109083;28;19915;-69
2023/04/19 01:03:50;;;;;;;;;;;11.60;92.10;;;;;;5108755;28;20844;-69
2023/04/19 01:06:16;;;;;;;;;;;11.60;92.30;;;;;;5109256;28;19911;-68
2023/04/19 01:08:41;;;;;;;;;;;11.60;92.20;;;;;;5106362;28;20006;-69
2023/04/19 01:11:07;;;;;;;;;;;11.50;92.20;;;;;;5109243;28;19953;-68
2023/04/19 01:13:33;;;;;;;;;;;11.60;92.20;;;;;;5108709;28;19912;-68
2023/04/19 01:15:59;;;;;;;;;;;11.60;92.10;;;;;;5109189;28;19912;-68
2023/04/19 01:18:28;;;;;;;;;;;11.50;92.20;;;;;;5109332;28;19912;-68
2023/04/19 01:20:53;;;;;;;;;;;11.50;92.30;;;;;;5109321;28;19927;-68
2023/04/19 01:23:19;;;;;;;;;;;11.50;92.20;;;;;;5108651;28;20534;-69
2023/04/19 01:25:45;;;;;;;;;;;11.50;92.30;;;;;;5109099;28;20594;-69
2023/04/19 01:28:10;;;;;;;;;;;11.50;92.30;;;;;;5108913;28;19964;-69
2023/04/19 01:30:36;;;;;;;;;;;11.50;92.20;;;;;;5109326;28;19919;-69
2023/04/19 01:33:02;;;;;;;;;;;11.50;92.30;;;;;;5096663;28;19934;-69
2023/04/19 01:35:27;;;;;;;;;;;11.50;92.40;;;;;;5088975;28;19935;-69
2023/04/19 01:37:55;;;;;;;;;;;11.50;92.30;;;;;;5088795;28;20384;-69
2023/04/19 01:40:23;;;;;;;;;;;11.50;92.40;;;;;;5090332;28;19923;-69
2023/04/19 01:42:49;;;;;;;;;;;11.50;92.50;;;;;;5108735;28;19908;-69
2023/04/19 01:45:14;;;;;;;;;;;11.50;92.30;;;;;;5108575;28;19915;-69
2023/04/19 01:47:40;;;;;;;;;;;11.40;92.50;;;;;;5107774;28;20380;-69
2023/04/19 01:50:06;;;;;;;;;;;11.40;92.50;;;;;;5108592;28;19912;-69
2023/04/19 01:52:31;;;;;;;;;;;11.40;92.40;;;;;;5107152;28;19969;-69
2023/04/19 01:54:57;;;;;;;;;;;11.40;92.30;;;;;;5109661;28;19912;-69
2023/04/19 01:57:22;;;;;;;;;;;11.40;92.50;;;;;;5112735;28;19911;-69
2023/04/19 01:59:49;;;;;;;;;;;11.40;92.50;;;;;;5112508;28;19908;-68
2023/04/19 02:02:14;;;;;;;;;;;11.40;92.50;;;;;;5112452;28;19915;-69
2023/04/19 02:04:40;;;;;;;;;;;11.40;92.50;;;;;;5112125;28;19915;-69
2023/04/19 02:07:05;;;;;;;;;;;11.40;92.50;;;;;;5112034;27;19912;-69
2023/04/19 02:09:34;;;;;;;;;;;11.30;92.40;;;;;;5109017;28;19911;-69
2023/04/19 02:11:59;;;;;;;;;;;11.40;92.40;;;;;;5112560;28;19911;-69
2023/04/19 02:14:25;;;;;;;;;;;11.30;92.40;;;;;;5112178;28;20369;-69
2023/04/19 02:16:50;;;;;;;;;;;11.30;92.40;;;;;;5112568;28;19911;-69
2023/04/19 02:19:16;;;;;;;;;;;11.30;92.40;;;;;;5111843;28;19919;-69
2023/04/19 02:21:42;;;;;;;;;;;11.30;92.60;;;;;;5112219;28;20051;-69
2023/04/19 02:24:07;;;;;;;;;;;11.30;92.60;;;;;;5111843;28;20313;-69
2023/04/19 02:26:33;;;;;;;;;;;11.30;92.60;;;;;;5112532;28;20613;-69
2023/04/19 02:28:58;;;;;;;;;;;11.30;92.50;;;;;;5111852;28;20011;-69
2023/04/19 02:31:24;;;;;;;;;;;11.30;92.60;;;;;;5112355;27;19919;-69
2023/04/19 02:33:52;;;;;;;;;;;11.30;92.60;;;;;;5111628;28;19912;-69
2023/04/19 02:36:18;;;;;;;;;;;11.30;92.60;;;;;;5110664;28;19908;-69
2023/04/19 02:38:43;;;;;;;;;;;11.30;92.60;;;;;;5111749;28;19953;-68
2023/04/19 02:41:09;;;;;;;;;;;11.20;92.50;;;;;;5110522;28;19965;-68
2023/04/19 02:43:34;;;;;;;;;;;11.20;92.60;;;;;;5111326;27;20018;-68
2023/04/19 02:46:00;;;;;;;;;;;11.20;92.60;;;;;;5112125;28;19912;-68
2023/04/19 02:48:26;;;;;;;;;;;11.30;92.60;;;;;;5111900;28;19916;-68
2023/04/19 02:50:51;;;;;;;;;;;11.20;92.60;;;;;;5112158;28;20327;-68
2023/04/19 02:53:17;;;;;;;;;;;11.20;92.50;;;;;;5111208;28;19939;-68
2023/04/19 02:55:42;;;;;;;;;;;11.20;92.60;;;;;;5111740;28;20526;-68
2023/04/19 02:58:08;;;;;;;;;;;11.20;92.50;;;;;;5110029;28;19930;-68
2023/04/19 03:00:33;;;;;;;;;;;11.20;92.60;;;;;;5111545;28;19911;-68
2023/04/19 03:02:59;;;;;;;;;;;11.20;92.60;;;;;;5111354;28;19912;-69
2023/04/19 03:05:25;;;;;;;;;;;11.20;92.50;;;;;;5110318;28;19957;-69
2023/04/19 03:07:50;;;;;;;;;;;11.20;92.50;;;;;;5109629;28;19962;-69
2023/04/19 03:10:16;;;;;;;;;;;11.20;92.60;;;;;;5109478;28;19911;-69
2023/04/19 03:12:41;;;;;;;;;;;11.20;92.60;;;;;;5111361;27;20027;-69
2023/04/19 03:15:07;;;;;;;;;;;11.20;92.60;;;;;;5109602;28;19911;-69
2023/04/19 03:17:32;;;;;;;;;;;11.20;92.70;;;;;;5103361;28;20349;-69
2023/04/19 03:19:58;;;;;;;;;;;11.10;92.70;;;;;;5110895;28;19920;-69
2023/04/19 03:22:23;;;;;;;;;;;11.10;92.70;;;;;;5111057;28;20666;-69
2023/04/19 03:24:49;;;;;;;;;;;11.10;92.60;;;;;;5111037;28;19994;-68
2023/04/19 03:27:14;;;;;;;;;;;11.10;92.70;;;;;;5111191;28;20411;-69
2023/04/19 03:29:40;;;;;;;;;;;11.10;92.70;;;;;;5110613;28;19916;-69
2023/04/19 03:32:06;;;;;;;;;;;11.10;92.70;;;;;;5109403;28;20322;-69
2023/04/19 03:34:31;;;;;;;;;;;11.10;92.70;;;;;;5110783;28;19964;-68
2023/04/19 03:36:57;;;;;;;;;;;11.10;92.60;;;;;;5109326;28;19950;-68
2023/04/19 03:39:22;;;;;;;;;;;11.10;92.50;;;;;;5110782;28;19915;-69
2023/04/19 03:41:48;;;;;;;;;;;11.10;92.60;;;;;;5110400;28;19916;-69
2023/04/19 03:44:13;;;;;;;;;;;11.10;92.70;;;;;;5110250;28;19923;-69
2023/04/19 03:46:39;;;;;;;;;;;11.10;92.70;;;;;;5110735;28;19911;-69
2023/04/19 03:49:04;;;;;;;;;;;11.10;92.60;;;;;;5110491;28;20380;-69
2023/04/19 03:51:30;;;;;;;;;;;11.00;92.60;;;;;;5110869;28;19912;-69
2023/04/19 03:53:56;;;;;;;;;;;11.10;92.60;;;;;;5110200;28;19919;-69
2023/04/19 03:56:21;;;;;;;;;;;11.00;92.70;;;;;;5110515;28;20628;-69
2023/04/19 03:58:50;;;;;;;;;;;11.00;92.50;;;;;;5110243;28;19912;-69
2023/04/19 04:01:23;;;;;;;;;;;11.00;92.70;;;;;;5110603;28;19922;-69
2023/04/19 04:03:48;;;;;;;;;;;11.00;92.60;;;;;;5109937;28;19999;-69
2023/04/19 04:06:14;;;;;;;;;;;11.00;92.60;;;;;;5110477;28;20006;-69
2023/04/19 04:08:39;;;;;;;;;;;10.90;92.70;;;;;;5107638;28;19912;-69
2023/04/19 04:11:05;;;;;;;;;;;10.90;92.60;;;;;;5110326;27;19923;-68
2023/04/19 04:13:30;;;;;;;;;;;10.90;92.60;;;;;;5108214;28;19919;-68
2023/04/19 04:15:56;;;;;;;;;;;10.90;92.60;;;;;;5108621;28;20131;-68
2023/04/19 04:18:22;;;;;;;;;;;10.90;92.70;;;;;;5108199;28;20443;-68
2023/04/19 04:20:47;;;;;;;;;;;10.90;92.70;;;;;;5110258;28;19915;-68
2023/04/19 04:23:13;;;;;;;;;;;10.90;92.60;;;;;;5109475;28;20456;-69
2023/04/19 04:25:38;;;;;;;;;;;10.90;92.50;;;;;;5109611;28;19915;-69
2023/04/19 04:28:05;;;;;;;;;;;10.90;92.50;;;;;;5109772;28;19916;-69
2023/04/19 04:30:30;;;;;;;;;;;10.90;92.70;;;;;;5109862;28;20065;-69
2023/04/19 04:32:59;;;;;;;;;;;10.80;92.60;;;;;;5108243;28;20428;-69
2023/04/19 04:35:25;;;;;;;;;;;10.80;92.60;;;;;;5109901;28;20273;-68
2023/04/19 04:37:52;;;;;;;;;;;10.80;92.50;;;;;;5109840;28;19912;-68
2023/04/19 04:40:18;;;;;;;;;;;10.80;92.40;;;;;;5109359;28;20376;-69
2023/04/19 04:42:44;;;;;;;;;;;10.80;92.50;;;;;;5109561;28;19914;-68
2023/04/19 04:45:10;;;;;;;;;;;10.80;92.50;;;;;;5107924;28;19908;-68
2023/04/19 04:47:36;;;;;;;;;;;10.80;92.70;;;;;;5109672;28;19916;-68
2023/04/19 04:50:02;;;;;;;;;;;10.80;92.70;;;;;;5109127;28;20562;-69
2023/04/19 04:52:28;;;;;;;;;;;10.80;92.60;;;;;;5109066;28;19998;-68
2023/04/19 04:54:53;;;;;;;;;;;10.70;92.50;;;;;;5107894;28;20064;-69
2023/04/19 04:57:19;;;;;;;;;;;10.70;92.60;;;;;;5109372;28;19908;-69
2023/04/19 04:59:48;;;;;;;;;;;10.70;92.60;;;;;;5109182;28;20538;-68
2023/04/19 05:02:13;;;;;;;;;;;10.70;92.60;;;;;;5109228;28;19916;-68
2023/04/19 05:04:39;;;;;;;;;;;10.70;92.60;;;;;;5107766;28;19908;-68
2023/04/19 05:07:05;;;;;;;;;;;10.70;92.60;;;;;;5107402;28;20537;-68
2023/04/19 05:09:30;;;;;;;;;;;10.70;92.50;;;;;;5107045;28;19990;-68
2023/04/19 05:11:56;;;;;;;;;;;10.70;92.40;;;;;;5107689;28;19950;-68
2023/04/19 05:14:21;;;;;;;;;;;10.70;92.40;;;;;;5101389;28;19959;-68
2023/04/19 05:16:47;;;;;;;;;;;10.70;92.60;;;;;;5109147;28;19919;-68
2023/04/19 05:19:12;;;;;;;;;;;10.60;92.50;;;;;;5108922;28;19919;-68
2023/04/19 05:21:38;;;;;;;;;;;10.60;92.10;;;;;;5109234;28;19912;-68
2023/04/19 05:24:03;;;;;;;;;;;10.60;92.40;;;;;;5108722;28;19912;-68
2023/04/19 05:26:29;;;;;;;;;;;10.60;92.50;;;;;;5109062;28;19959;-69
2023/04/19 05:28:55;;;;;;;;;;;10.60;92.40;;;;;;5108818;28;20018;-68
2023/04/19 05:31:21;;;;;;;;;;;10.60;92.40;;;;;;5112847;28;19919;-68
2023/04/19 05:33:46;;;;;;;;;;;10.60;92.40;;;;;;5112610;28;19911;-69
2023/04/19 05:36:12;;;;;;;;;;;10.60;92.40;;;;;;5112854;28;19908;-68
2023/04/19 05:38:37;;;;;;;;;;;10.60;92.50;;;;;;5111389;28;20006;-68
2023/04/19 05:41:03;;;;;;;;;;;10.60;92.80;;;;;;5113084;28;19911;-68
2023/04/19 05:43:28;;;;;;;;;;;10.60;92.50;;;;;;5112588;28;19911;-68
2023/04/19 05:45:54;;;;;;;;;;;10.60;92.50;;;;;;5112974;28;20276;-69
2023/04/19 05:48:19;;;;;;;;;;;10.60;92.50;;;;;;5112853;28;19911;-68
2023/04/19 05:50:45;;;;;;;;;;;10.60;92.50;;;;;;5113133;27;20464;-69
2023/04/19 05:53:11;;;;;;;;;;;10.60;92.50;;;;;;5112231;28;19912;-68
2023/04/19 05:55:36;;;;;;;;;;;10.60;92.30;;;;;;5112747;28;19911;-68
2023/04/19 05:58:02;;;;;;;;;;;10.60;92.40;;;;;;5112476;28;19966;-68
2023/04/19 06:00:27;;;;;;;;;;;10.60;92.30;;;;;;5112608;28;19955;-68
2023/04/19 06:02:53;;;;;;;;;;;10.60;92.40;;;;;;5112271;28;19912;-68
2023/04/19 06:05:18;;;;;;;;;;;10.60;92.30;;;;;;5111261;28;19950;-68
2023/04/19 06:07:44;;;;;;;;;;;10.70;92.30;;;;;;5111031;28;19943;-68
2023/04/19 06:10:09;;;;;;;;;;;10.70;92.20;;;;;;5110658;28;19920;-68
2023/04/19 06:12:35;;;;;;;;;;;10.70;92.20;;;;;;5112270;28;19928;-68
2023/04/19 06:15:00;;;;;;;;;;;10.70;92.20;;;;;;5112101;28;19918;-68
2023/04/19 06:17:26;;;;;;;;;;;10.80;92.10;;;;;;5110483;28;19942;-68
2023/04/19 06:19:52;;;;;;;;;;;10.80;92.10;;;;;;5110866;28;19930;-69
2023/04/19 06:22:17;;;;;;;;;;;10.80;92.00;;;;;;5110333;28;20303;-69
2023/04/19 06:24:43;;;;;;;;;;;10.90;91.80;;;;;;5111966;28;19914;-68
2023/04/19 06:27:09;;;;;;;;;;;10.90;91.90;;;;;;5112332;28;19936;-68
2023/04/19 06:29:34;;;;;;;;;;;11.00;91.80;;;;;;5110430;28;19962;-69
2023/04/19 06:32:00;;;;;;;;;;;11.00;91.70;;;;;;5112003;28;20008;-69
2023/04/19 06:34:26;;;;;;;;;;;11.00;91.60;;;;;;5111850;28;19966;-68
2023/04/19 06:36:51;;;;;;;;;;;11.10;91.50;;;;;;5111902;28;19978;-68
2023/04/19 06:39:17;;;;;;;;;;;11.20;91.50;;;;;;5110234;28;19908;-68
2023/04/19 06:41:42;;;;;;;;;;;11.20;91.30;;;;;;5111016;28;20040;-68
2023/04/19 06:44:07;;;;;;;;;;;11.20;91.60;;;;;;5111310;28;19916;-68
2023/04/19 06:46:33;;;;;;;;;;;11.20;91.10;;;;;;5111903;28;20242;-68
2023/04/19 06:48:59;;;;;;;;;;;11.30;91.10;;;;;;5111552;28;19919;-68
2023/04/19 06:51:24;;;;;;;;;;;11.30;91.00;;;;;;5111556;28;19991;-68
2023/04/19 06:53:50;;;;;;;;;;;11.30;90.90;;;;;;5111068;28;19911;-68
2023/04/19 06:56:15;;;;;;;;;;;11.20;90.90;;;;;;5110165;28;19912;-68
2023/04/19 06:58:41;;;;;;;;;;;11.30;90.70;;;;;;5111332;28;19916;-68
2023/04/19 07:01:06;;;;;;;;;;;11.30;90.60;;;;;;5111461;28;19916;-68
2023/04/19 07:03:32;;;;;;;;;;;11.20;90.60;;;;;;5111020;28;19943;-68
2023/04/19 07:05:57;;;;;;;;;;;11.30;90.60;;;;;;5111348;27;19919;-68
2023/04/19 07:08:23;;;;;;;;;;;11.30;90.50;;;;;;5108535;28;19918;-68
2023/04/19 07:10:49;;;;;;;;;;;11.30;90.60;;;;;;5109698;28;20494;-68
2023/04/19 07:13:15;;;;;;;;;;;11.40;90.40;;;;;;5107073;28;19916;-68
2023/04/19 07:15:40;;;;;;;;;;;11.30;90.40;;;;;;5110848;28;19991;-68
2023/04/19 07:18:06;;;;;;;;;;;11.40;90.40;;;;;;5111244;28;20280;-68
2023/04/19 07:20:31;;;;;;;;;;;11.40;90.30;;;;;;5111054;27;19919;-68
2023/04/19 07:23:00;;;;;;;;;;;11.40;90.30;;;;;;5109565;28;19919;-68
2023/04/19 07:25:26;;;;;;;;;;;11.50;90.10;;;;;;5111243;28;20088;-68
2023/04/19 07:27:53;;;;;;;;;;;11.50;90.20;;;;;;5110784;28;19916;-68
2023/04/19 07:30:18;;;;;;;;;;;11.50;90.20;;;;;;5110630;28;19915;-68
2023/04/19 07:32:45;;;;;;;;;;;11.60;90.10;;;;;;5110642;28;20487;-68
2023/04/19 07:35:10;;;;;;;;;;;11.60;89.90;;;;;;5110178;28;19912;-68
2023/04/19 07:37:36;;;;;;;;;;;11.60;90.00;;;;;;5110715;28;20417;-68
2023/04/19 07:40:02;;;;;;;;;;;11.60;90.00;;;;;;5110375;28;20360;-68
2023/04/19 07:42:28;;;;;;;;;;;11.60;90.00;;;;;;5110385;28;19915;-68
2023/04/19 07:44:54;;;;;;;;;;;11.70;90.10;;;;;;5110263;28;19911;-69
2023/04/19 07:47:19;;;;;;;;;;;11.70;89.70;;;;;;5110473;28;19912;-68
2023/04/19 07:49:45;;;;;;;;;;;11.70;89.60;;;;;;5109994;28;19916;-68
2023/04/19 07:52:10;;;;;;;;;;;11.70;89.90;;;;;;5109667;28;19912;-68
2023/04/19 07:54:38;;;;;;;;;;;11.80;89.80;;;;;;5110236;28;20446;-68
2023/04/19 07:57:03;;;;;;;;;;;11.80;89.30;;;;;;5109071;28;19907;-69
2023/04/19 07:59:32;;;;;;;;;;;11.80;89.40;;;;;;5110008;28;19912;-68
2023/04/19 08:01:57;;;;;;;;;;;11.80;89.40;;;;;;5108610;28;19916;-68
2023/04/19 08:04:23;;;;;;;;;;;11.80;88.90;;;;;;5109879;28;20395;-68
2023/04/19 08:06:49;;;;;;;;;;;11.80;88.80;;;;;;5108737;28;19915;-68
2023/04/19 08:09:14;;;;;;;;;;;11.80;88.60;;;;;;5109163;27;19908;-68
2023/04/19 08:11:41;;;;;;;;;;;11.80;88.70;;;;;;5109749;28;19918;-68
2023/04/19 08:14:06;;;;;;;;;;;11.90;88.00;;;;;;5109599;28;19911;-68
2023/04/19 08:16:32;;;;;;;;;;;11.90;88.10;;;;;;5110213;28;20439;-68
2023/04/19 08:18:57;;;;;;;;;;;11.90;88.10;;;;;;5109687;28;19922;-68
2023/04/19 08:21:23;;;;;;;;;;;11.90;87.80;;;;;;5108462;28;19915;-68
2023/04/19 08:23:48;;;;;;;;;;;11.90;87.70;;;;;;5108083;28;20441;-68
2023/04/19 08:26:13;;;;;;;;;;;12.00;87.70;;;;;;5109510;28;19998;-68
2023/04/19 08:28:39;;;;;;;;;;;12.00;87.50;;;;;;5107896;28;19912;-68
2023/04/19 08:31:06;;;;;;;;;;;12.00;87.30;;;;;;5109795;28;19915;-68
2023/04/19 08:33:31;;;;;;;;;;;12.00;87.40;;;;;;5109228;28;20313;-68
2023/04/19 08:35:57;;;;;;;;;;;12.00;87.20;;;;;;5109537;28;20010;-68
2023/04/19 08:38:22;;;;;;;;;;;12.10;86.90;;;;;;5109385;28;19911;-69
2023/04/19 08:40:51;;;;;;;;;;;12.10;87.00;;;;;;5109400;28;19911;-69
2023/04/19 08:43:17;;;;;;;;;;;12.10;86.60;;;;;;5108958;28;19912;-69
2023/04/19 08:45:45;;;;;;;;;;;12.20;86.80;;;;;;5109473;28;19912;-69
2023/04/19 08:48:11;;;;;;;;;;;12.20;86.60;;;;;;5109399;28;20506;-69
2023/04/19 08:50:37;;;;;;;;;;;12.20;86.70;;;;;;5109389;28;20018;-69
2023/04/19 08:53:03;;;;;;;;;;;12.20;86.80;;;;;;5092181;28;20380;-69
2023/04/19 08:55:29;;;;;;;;;;;12.20;86.40;;;;;;5089141;28;19912;-69
2023/04/19 08:57:55;;;;;;;;;;;12.20;86.60;;;;;;5087922;28;19923;-68
2023/04/19 09:00:21;;;;;;;;;;;12.20;86.50;;;;;;5088836;28;19919;-68
2023/04/19 09:02:47;;;;;;;;;;;12.30;86.40;;;;;;5088579;28;19919;-68
2023/04/19 09:05:13;;;;;;;;;;;12.30;86.80;;;;;;5088503;28;20285;-68
2023/04/19 09:07:39;;;;;;;;;;;12.30;86.20;;;;;;5093639;28;20276;-68
2023/04/19 09:10:06;;;;;;;;;;;12.30;86.40;;;;;;5108723;28;19908;-69
2023/04/19 09:12:33;;;;;;;;;;;12.30;86.20;;;;;;5109169;28;19912;-69
2023/04/19 09:14:59;;;;;;;;;;;12.30;86.40;;;;;;5108980;28;19999;-69
2023/04/19 09:17:25;;;;;;;;;;;12.30;86.20;;;;;;5109055;28;19912;-69
2023/04/19 09:19:50;;;;;;;;;;;12.30;85.90;;;;;;5108740;28;19919;-69
2023/04/19 09:22:16;;;;;;;;;;;12.30;86.10;;;;;;5096892;28;19920;-69
2023/04/19 09:24:42;;;;;;;;;;;12.40;86.00;;;;;;5086927;28;20007;-69
2023/04/19 09:27:10;;;;;;;;;;;12.40;86.20;;;;;;5088824;28;19908;-69
2023/04/19 09:29:36;;;;;;;;;;;12.40;85.80;;;;;;5088541;28;19912;-69
2023/04/19 09:32:02;;;;;;;;;;;12.40;85.50;;;;;;5097828;28;20569;-69
2023/04/19 09:34:29;;;;;;;;;;;12.40;85.40;;;;;;5108812;28;19919;-69
2023/04/19 09:36:55;;;;;;;;;;;12.40;85.70;;;;;;5107645;28;19912;-69
2023/04/19 09:39:30;;;;;;;;;;;12.50;85.50;;;;;;5097416;28;19923;-69
2023/04/19 09:41:57;;;;;;;;;;;12.50;85.30;;;;;;5101657;28;20042;-69
2023/04/19 09:44:23;;;;;;;;;;;12.50;85.30;;;;;;5106877;28;19915;-69
2023/04/19 09:46:51;;;;;;;;;;;12.50;85.30;;;;;;5106815;28;20006;-69
2023/04/19 09:49:18;;;;;;;;;;;12.50;85.20;;;;;;5106638;28;20607;-70
2023/04/19 09:51:45;;;;;;;;;;;12.50;85.10;;;;;;5107039;28;19922;-69
2023/04/19 09:54:11;;;;;;;;;;;12.60;84.90;;;;;;5106459;28;19916;-69
2023/04/19 09:56:37;;;;;;;;;;;12.60;84.90;;;;;;5106413;28;19916;-69
2023/04/19 09:59:04;;;;;;;;;;;12.60;84.90;;;;;;5081867;28;19927;-70
2023/04/19 10:01:34;;;;;;;;;;;12.60;84.90;;;;;;5107575;28;19949;-70
2023/04/19 10:04:00;;;;;;;;;;;12.60;84.80;;;;;;5107581;28;20314;-70
2023/04/19 10:06:26;;;;;;;;;;;12.60;84.70;;;;;;5106590;28;20007;-68
2023/04/19 10:08:52;;;;;;;;;;;12.70;84.90;;;;;;5104788;28;20034;-68
2023/04/19 10:11:20;;;;;;;;;;;12.80;84.80;;;;;;5107045;28;19908;-68
2023/04/19 10:13:47;;;;;;;;;;;12.80;84.50;;;;;;5108075;28;20400;-68
2023/04/19 10:16:13;;;;;;;;;;;12.80;84.50;;;;;;5108669;28;19957;-68
2023/04/19 10:18:39;;;;;;;;;;;12.80;84.70;;;;;;5110530;28;19911;-68
2023/04/19 10:21:07;;;;;;;;;;;12.90;84.70;;;;;;5111849;28;20606;-68
2023/04/19 10:23:32;;;;;;;;;;;12.90;85.10;;;;;;5091297;28;19912;-68
2023/04/19 10:25:58;;;;;;;;;;;12.90;85.20;;;;;;5090491;28;19908;-68
2023/04/19 10:28:26;;;;;;;;;;;13.00;85.50;;;;;;5091635;28;19919;-68
2023/04/19 10:30:59;;;;;;;;;;;13.00;86.00;;;;;;5091827;28;19938;-68
2023/04/19 10:33:26;;;;;;;;;;;13.10;84.70;;;;;;5098848;28;19914;-68
2023/04/19 10:35:54;;;;;;;;;;;13.10;85.00;;;;;;5111932;28;19915;-68
2023/04/19 10:38:34;;;;;;;;;;;13.20;85.10;;;;;;5111544;28;20292;-68
2023/04/19 10:41:00;;;;;;;;;;;13.20;84.70;;;;;;5111768;28;19915;-68
2023/04/19 10:43:35;;;;;;;;;;;13.40;84.30;;;;;;5111247;28;20372;-68
2023/04/19 10:46:21;;;;;;;;;;;13.40;85.00;;;;;;5112139;28;19918;-68
2023/04/19 10:48:53;;;;;;;;;;;13.40;84.30;;;;;;5103941;28;19911;-68
2023/04/19 10:51:26;;;;;;;;;;;13.50;83.70;;;;;;5109414;28;20002;-68
2023/04/19 10:53:55;;;;;;;;;;;13.60;84.00;;;;;;5090677;28;19916;-69
2023/04/19 10:56:33;;;;;;;;;;;13.70;82.80;;;;;;5091150;28;20378;-68
2023/04/19 10:59:09;;;;;;;;;;;13.80;85.10;;;;;;5090924;28;19915;-68
2023/04/19 11:01:36;;;;;;;;;;;13.90;84.50;;;;;;5091204;28;19958;-68
2023/04/19 11:04:02;;;;;;;;;;;14.00;84.50;;;;;;5090856;28;19914;-68
2023/04/19 11:06:28;;;;;;;;;;;14.10;83.40;;;;;;5090972;28;19912;-68
2023/04/19 11:08:53;;;;;;;;;;;14.20;84.50;;;;;;5103630;28;20508;-68
2023/04/19 11:11:19;;;;;;;;;;;14.30;85.20;;;;;;5110868;28;20368;-68
2023/04/19 11:13:48;;;;;;;;;;;14.40;82.00;;;;;;5110469;28;19915;-68
2023/04/19 11:16:13;;;;;;;;;;;14.50;84.80;;;;;;5111089;28;19916;-69
2023/04/19 11:18:39;;;;;;;;;;;14.60;85.10;;;;;;5111003;28;20524;-69
2023/04/19 11:21:04;;;;;;;;;;;14.70;84.70;;;;;;5110906;28;20253;-69
2023/04/19 11:23:30;;;;;;;;;;;14.70;84.80;;;;;;5094738;28;19918;-69
2023/04/19 11:25:55;;;;;;;;;;;14.80;84.80;;;;;;5110955;28;19911;-69
2023/04/19 11:28:21;;;;;;;;;;;14.90;84.80;;;;;;5109447;28;19916;-69
2023/04/19 11:30:47;;;;;;;;;;;15.00;84.00;;;;;;5110799;28;19958;-69
2023/04/19 11:33:12;;;;;;;;;;;15.00;84.70;;;;;;5109066;28;20265;-69
2023/04/19 11:35:38;;;;;;;;;;;15.10;84.80;;;;;;5110919;28;20336;-69
2023/04/19 11:38:04;;;;;;;;;;;15.20;84.60;;;;;;5110547;28;20433;-69
2023/04/19 11:40:29;;;;;;;;;;;15.20;84.20;;;;;;5110459;28;19911;-69
2023/04/19 11:42:59;;;;;;;;;;;15.30;84.40;;;;;;5110301;28;20575;-69
2023/04/19 11:45:28;;;;;;;;;;;15.40;81.80;;;;;;5109051;28;20366;-69
2023/04/19 11:47:53;;;;;;;;;;;15.40;84.30;;;;;;5110235;28;19985;-69
2023/04/19 11:50:38;;;;;;;;;;;15.50;82.50;;;;;;5110509;28;19955;-69
2023/04/19 11:53:22;;;;;;;;;;;15.50;83.80;;;;;;5108549;28;19915;-69
2023/04/19 11:55:49;;;;;;;;;;;15.60;83.90;;;;;;5110305;28;19912;-69
2023/04/19 11:58:27;;;;;;;;;;;15.60;84.70;;;;;;5110195;28;19912;-69
2023/04/19 12:00:53;;;;;;;;;;;15.70;84.60;;;;;;5110531;28;20318;-69
2023/04/19 12:03:24;;;;;;;;;;;15.70;83.90;;;;;;5109717;28;19957;-69
2023/04/19 12:05:57;;;;;;;;;;;15.70;84.30;;;;;;5110467;28;19933;-69
2023/04/19 12:08:32;;;;;;;;;;;15.80;85.40;;;;;;5107580;28;19912;-69
2023/04/19 12:10:58;;;;;;;;;;;15.80;85.60;;;;;;5109966;28;19964;-69
2023/04/19 12:13:26;;;;;;;;;;;15.80;86.40;;;;;;5109569;28;20330;-69
2023/04/19 12:15:52;;;;;;;;;;;15.90;84.60;;;;;;5108542;28;19943;-69
2023/04/19 12:18:17;;;;;;;;;;;15.90;85.60;;;;;;5102627;28;19950;-69
2023/04/19 12:20:44;;;;;;;;;;;15.90;86.00;;;;;;5109889;28;20538;-69
2023/04/19 12:23:12;;;;;;;;;;;16.00;86.80;;;;;;5107880;28;19956;-69
2023/04/19 12:25:38;;;;;;;;;;;16.00;87.00;;;;;;5109975;28;19908;-69
2023/04/19 12:28:04;;;;;;;;;;;16.00;87.00;;;;;;5109538;28;20623;-69
2023/04/19 12:30:29;;;;;;;;;;;16.10;86.80;;;;;;5109566;28;19953;-69
2023/04/19 12:32:55;;;;;;;;;;;16.10;86.70;;;;;;5107534;28;20549;-69
2023/04/19 12:35:25;;;;;;;;;;;16.20;82.00;;;;;;5109632;28;19919;-69
2023/04/19 12:37:55;;;;;;;;;;;16.20;84.50;;;;;;5109469;28;19919;-69
2023/04/19 12:40:20;;;;;;;;;;;16.20;86.30;;;;;;5108938;28;19908;-70
2023/04/19 12:42:46;;;;;;;;;;;16.20;85.40;;;;;;5109251;28;19912;-69
2023/04/19 12:45:12;;;;;;;;;;;16.30;85.20;;;;;;5109206;28;20337;-70
2023/04/19 12:47:37;;;;;;;;;;;16.30;84.90;;;;;;5107994;28;19908;-69
2023/04/19 12:50:03;;;;;;;;;;;16.30;87.30;;;;;;5109315;28;20002;-69
2023/04/19 12:52:29;;;;;;;;;;;16.30;87.40;;;;;;5117162;27;19964;-69
2023/04/19 12:54:54;;;;;;;;;;;16.40;86.30;;;;;;5108700;28;19923;-69
2023/04/19 12:57:20;;;;;;;;;;;16.40;86.90;;;;;;5109309;28;19916;-69
2023/04/19 12:59:45;;;;;;;;;;;16.40;86.70;;;;;;5108829;28;19912;-69
2023/04/19 13:02:11;;;;;;;;;;;16.50;86.80;;;;;;5108834;28;19923;-69
2023/04/19 13:04:36;;;;;;;;;;;16.50;85.90;;;;;;5109157;28;19912;-69
2023/04/19 13:07:02;;;;;;;;;;;16.50;87.90;;;;;;5107421;28;20264;-70
2023/04/19 13:09:27;;;;;;;;;;;16.60;87.10;;;;;;5106829;28;19918;-69
2023/04/19 13:11:59;;;;;;;;;;;16.60;88.20;;;;;;5108640;28;19923;-69
2023/04/19 13:14:25;;;;;;;;;;;16.60;86.70;;;;;;5108505;28;19934;-70
2023/04/19 13:16:51;;;;;;;;;;;16.60;86.40;;;;;;5109002;28;19912;-70
2023/04/19 13:19:16;;;;;;;;;;;16.70;86.60;;;;;;5108610;28;20388;-69
2023/04/19 13:21:42;;;;;;;;;;;16.70;87.60;;;;;;5103328;28;19919;-70
2023/04/19 13:24:07;;;;;;;;;;;16.70;87.20;;;;;;5088272;28;20007;-70
2023/04/19 13:26:33;;;;;;;;;;;16.80;87.10;;;;;;5088812;28;19965;-70
2023/04/19 13:28:59;;;;;;;;;;;16.80;87.00;;;;;;5088485;28;20426;-69
2023/04/19 13:31:25;;;;;;;;;;;16.90;86.00;;;;;;5102575;28;19911;-69
2023/04/19 13:33:51;;;;;;;;;;;16.90;85.90;;;;;;5108774;28;19912;-70
2023/04/19 13:36:17;;;;;;;;;;;16.90;87.90;;;;;;5108964;28;19918;-69
2023/04/19 13:38:42;;;;;;;;;;;16.90;88.30;;;;;;5108498;28;19915;-69
2023/04/19 13:41:08;;;;;;;;;;;16.90;87.90;;;;;;5109066;28;19994;-69
2023/04/19 13:43:34;;;;;;;;;;;16.90;87.70;;;;;;5108484;28;19912;-70
2023/04/19 13:45:59;;;;;;;;;;;17.00;88.00;;;;;;5107452;28;19912;-70
2023/04/19 13:48:27;;;;;;;;;;;17.00;88.30;;;;;;5108623;28;20353;-69
2023/04/19 13:50:56;;;;;;;;;;;17.10;87.50;;;;;;5109968;28;19964;-69
2023/04/19 13:53:22;;;;;;;;;;;17.10;87.60;;;;;;5092697;28;19944;-69
2023/04/19 13:55:48;;;;;;;;;;;17.10;87.00;;;;;;5091277;28;19954;-69
2023/04/19 13:58:13;;;;;;;;;;;17.10;87.40;;;;;;5112336;28;19912;-69
2023/04/19 14:00:39;;;;;;;;;;;17.20;87.40;;;;;;5111429;28;20425;-69
2023/04/19 14:03:04;;;;;;;;;;;17.20;87.40;;;;;;5112104;28;19908;-70
2023/04/19 14:05:30;;;;;;;;;;;17.20;87.20;;;;;;5112378;28;19912;-69
2023/04/19 14:07:56;;;;;;;;;;;17.20;87.40;;;;;;5110003;28;20612;-69
2023/04/19 14:10:21;;;;;;;;;;;17.20;88.10;;;;;;5111596;28;19915;-69